Home   Weather   Israel   Ashkelon   Past weeks
Flag for Israel

Past Weather in Ashkelon, Israel — Yesterday and Last 2 Weeks

Currently: 54 °F. Clear. (Weather station: Ben Gurion International Airport, Israel). See more current weather

Past Weather in Ashkelon — Graph

°F

Ashkelon Temperature Yesterday

Maximum temperature yesterday: 72 °F (at 11:50 am)
Minimum temperature yesterday: 48 °F (at 5:20 am)
Average temperature yesterday: 61 °F

High & Low Weather Summary for the Past Weeks

 TemperatureHumidityPressure
High77 °F (Feb 13, 11:50 am)100% (Feb 21, 5:50 am)30.18 "Hg (Feb 21, 5:50 am)
Low46 °F (Feb 21, 5:50 am)22% (Feb 13, 12:20 pm)29.71 "Hg (Feb 13, 2:20 pm)
Average60 °F71%30.02 "Hg
* Reported Feb 12 1:20 am — Feb 27 1:20 am, Ashkelon. Weather by CustomWeather, © 2024

Note: Actual official high and low records may vary slightly from our data, if they occured in-between our weather recording intervals... More about our weather records

Ashkelon Weather History for the Previous 24 Hours

Scroll right to see more
 ConditionsComfort  
Time TempWeatherWind HumidityBarometerVisibility
1:20 am
Tue, Feb 27
54 °FClear.3 mph94%29.86 "Hg10 mi
12:50 am57 °FClear.2 mph77%29.86 "Hg10 mi
12:20 am57 °FClear.2 mph77%29.86 "Hg10 mi
11:50 pm
Mon, Feb 26
57 °FClear.2 mph77%29.89 "Hg10 mi
11:20 pm57 °FClear.2 mph77%29.89 "Hg10 mi
10:50 pm59 °FClear.2 mph72%29.89 "Hg10 mi
10:20 pm59 °FClear.1 mph72%29.89 "Hg10 mi
9:50 pm59 °FClear.2 mph72%29.89 "Hg10 mi
9:20 pm61 °FClear.2 mph63%29.89 "Hg10 mi
8:50 pm61 °FClear.3 mph68%29.89 "Hg10 mi
8:20 pm63 °FClear.2 mph64%29.89 "Hg10 mi
7:50 pm63 °FClear.2 mph59%29.89 "Hg10 mi
7:20 pm63 °FClear.3 mph59%29.89 "Hg10 mi
6:50 pm64 °FClear.2 mph52%29.89 "Hg10 mi
6:20 pm66 °FClear.5 mph49%29.89 "Hg10 mi
5:50 pm66 °FPassing clouds.5 mph49%29.86 "HgN/A
5:20 pm66 °FSunny.3 mph46%29.86 "Hg10 mi
4:50 pm68 °FSunny.7 mph40%29.86 "Hg10 mi
4:20 pm68 °FSunny.8 mph38%29.86 "Hg10 mi
3:50 pm68 °FSunny.8 mph38%29.86 "Hg10 mi
3:20 pm70 °FSunny.8 mph38%29.86 "Hg10 mi
2:50 pm70 °FPassing clouds.9 mph40%29.89 "HgN/A
2:20 pm70 °FPassing clouds.9 mph43%29.89 "HgN/A
1:50 pm72 °FPassing clouds.9 mph44%29.89 "HgN/A
1:20 pm72 °FPassing clouds.8 mph44%29.89 "HgN/A
12:50 pm72 °FPassing clouds.8 mph41%29.89 "HgN/A
12:20 pm72 °FSunny.5 mph41%29.92 "Hg10 mi
11:50 am72 °FSunny.3 mph41%29.92 "Hg10 mi
11:20 am70 °FSunny.3 mph43%29.95 "Hg10 mi
10:50 am70 °FSunny.3 mph43%29.95 "Hg10 mi
10:20 am66 °FSunny.2 mph49%29.95 "Hg10 mi
9:50 am66 °FSunny.2 mph49%29.95 "Hg10 mi
9:20 am63 °FSunny.2 mph56%29.95 "Hg10 mi
8:50 am61 °FSunny.1 mph55%29.95 "Hg10 mi
8:20 am55 °FSunny.1 mph67%29.98 "Hg10 mi
7:50 am54 °FSunny.1 mph67%29.98 "Hg10 mi
7:20 am50 °FSunny.1 mph76%29.98 "Hg10 mi
6:50 am48 °FSunny.2 mph82%29.98 "Hg10 mi
6:20 am48 °FSunny.1 mph82%29.95 "Hg10 mi
5:50 am48 °FClear.1 mph82%29.95 "Hg10 mi
5:20 am48 °FClear.1 mph82%29.95 "Hg10 mi
4:20 am50 °FClear.2 mph88%29.95 "Hg6 mi
3:50 am50 °FClear.1 mph88%29.98 "Hg4 mi
3:20 am52 °FClear.1 mph88%29.95 "Hg5 mi
Weather by CustomWeather, © 2024

See weather overview